PDT,Max TemperatureF,Mean TemperatureF,Min TemperatureF,Max Dew PointF,MeanDew PointF,Min DewpointF,Max Humidity, Mean Humidity, Min Humidity, Max Sea Level PressureIn, Mean Sea Level PressureIn, Min Sea Level PressureIn, Max VisibilityMiles, Mean VisibilityMiles, Min VisibilityMiles, Max Wind SpeedMPH, Mean Wind SpeedMPH, Max Gust SpeedMPH,PrecipitationIn, CloudCover, Events, WindDirDegrees
2012-9-1,75,62,49,38,32,25,61,39,16,30.01,29.94,29.79,10,10,10,22,11,29,0.00,2,,213
2012-9-2,75,62,49,38,32,28,46,33,19,30.08,30.04,30.01,10,10,10,18,10,24,0.00,3,,206
2012-9-3,78,64,50,38,34,30,54,37,19,30.09,30.03,29.97,10,10,10,18,8,24,0.00,2,,208
2012-9-4,79,65,50,38,36,35,59,40,21,30.14,30.09,30.04,10,10,10,16,6,24,0.00,1,,297
2012-9-5,81,65,48,45,38,36,57,39,20,30.07,29.98,29.87,10,10,10,32,7,38,0.00,3,,264
2012-9-6,75,64,52,46,43,39,77,52,27,30.12,30.05,29.96,10,10,10,20,10,25,0.00,1,,32
2012-9-7,81,65,49,45,39,29,71,43,15,30.25,30.19,30.13,10,10,10,10,4,13,0.00,0,,42
2012-9-8,86,70,53,46,38,24,66,38,10,30.16,30.05,29.85,10,10,10,14,7,16,0.00,3,,55
2012-9-9,82,68,54,45,40,28,51,34,16,29.83,29.79,29.73,10,10,9,28,13,33,T,5,,203
2012-9-10,68,57,46,45,34,19,77,47,16,30.03,29.92,29.83,10,9,4,32,18,41,0.00,5,,221
2012-9-11,64,50,35,29,25,19,70,44,18,30.25,30.20,30.05,10,10,7,14,5,17,0.00,2,,221
2012-9-12,70,54,38,30,27,23,64,41,18,30.42,30.36,30.26,10,10,10,10,3,15,0.00,2,,53
2012-9-13,77,62,46,37,34,30,61,40,18,30.38,30.29,30.17,10,10,10,8,4,,0.00,2,,52
2012-9-14,84,67,50,43,34,22,71,41,10,30.17,30.07,29.97,10,8,5,12,6,13,0.00,3,,115
2012-9-15,83,67,51,38,32,28,46,31,15,30.07,30.03,29.99,10,8,6,12,4,15,0.00,5,,181
2012-9-16,80,64,47,43,33,24,66,40,13,30.16,30.10,30.07,10,10,7,12,2,16,0.00,2,,273
2012-9-17,79,64,48,38,31,27,54,35,16,30.16,30.11,30.07,10,10,10,8,2,10,0.00,1,,252
2012-9-18,83,66,49,37,31,27,48,31,14,30.12,30.06,30.01,10,10,10,12,5,15,0.00,1,,175
2012-9-19,83,68,52,41,35,29,64,41,17,30.13,30.08,30.04,10,8,4,9,3,13,0.00,1,,162
2012-9-20,86,69,52,45,37,33,64,40,15,30.15,30.08,30.04,10,7,5,10,2,13,0.00,2,,158
2012-9-21,84,69,53,46,41,34,71,45,19,30.07,30.01,29.93,10,9,7,13,5,17,0.00,4,,18
2012-9-22,81,67,52,46,42,39,59,44,28,30.02,29.97,29.93,10,8,6,13,4,16,0.00,5,,189
2012-9-23,71,62,52,50,44,41,77,59,40,30.09,30.04,29.97,10,9,7,13,5,15,T,5,Rain,198
2012-9-24,74,63,51,44,43,39,71,42,12,30.09,30.02,29.82,20,9,6,10,4,14,0.00,2,,180
2012-9-25,72,61,50,47,44,42,77,58,38,30.01,29.97,29.94,10,9,6,14,7,17,0.00,1,,186
2012-9-26,74,61,48,46,42,38,80,56,31,30.09,30.04,30.01,10,10,7,9,3,10,0.00,2,,166
2012-9-27,77,62,47,47,41,37,86,56,25,30.10,30.04,29.97,10,9,7,10,2,14,0.00,0,,43
2012-9-28,78,64,50,47,41,35,83,52,21,29.99,29.95,29.89,10,9,7,15,6,18,0.00,3,,193
2012-9-29,77,66,54,45,42,38,55,43,31,30.08,30.03,29.95,10,10,9,20,10,23,0.00,5,,198
2012-9-30,75,61,47,44,34,24,82,49,16,30.29,30.23,30.09,10,10,10,14,6,17,0.00,4,,200